createdAt,value
2019-05-02T00:01:21.953Z,58.16
2019-05-02T00:03:50.625Z,58.45
2019-05-02T00:06:19.259Z,58.41
2019-05-02T00:08:48.610Z,58.72
2019-05-02T00:11:17.747Z,58.70
2019-05-02T00:13:46.589Z,59.25
2019-05-02T00:16:15.528Z,59.49
2019-05-02T00:18:44.193Z,59.84
2019-05-02T00:21:12.913Z,59.35
2019-05-02T00:23:41.683Z,58.94
2019-05-02T00:26:10.476Z,59.40
2019-05-02T00:28:42.905Z,59.78
2019-05-02T00:31:11.517Z,60.15
2019-05-02T00:33:40.106Z,60.27
2019-05-02T00:36:08.708Z,60.33
2019-05-02T00:38:38.547Z,60.37
2019-05-02T00:41:07.664Z,60.90
2019-05-02T00:43:36.410Z,61.25
2019-05-02T00:46:05.177Z,61.41
2019-05-02T00:48:38.276Z,61.66
2019-05-02T00:51:06.804Z,61.41
2019-05-02T00:53:35.384Z,61.64
2019-05-02T00:56:05.132Z,61.79
2019-05-02T00:58:34.156Z,61.87
2019-05-02T01:01:10.421Z,62.72
2019-05-02T01:03:40.632Z,62.37
2019-05-02T01:06:13.671Z,62.27
2019-05-02T01:08:39.344Z,62.46
2019-05-02T01:11:08.113Z,62.17
2019-05-02T01:13:36.696Z,62.91
2019-05-02T01:16:05.226Z,63.50
2019-05-02T01:18:37.294Z,63.83
2019-05-02T01:21:04.284Z,64.03
2019-05-02T01:23:32.784Z,63.85
2019-05-02T01:26:01.290Z,64.27
2019-05-02T01:28:49.278Z,64.54
2019-05-02T01:31:37.141Z,64.29
2019-05-02T01:34:18.092Z,64.54
2019-05-02T01:37:04.174Z,64.48
2019-05-02T01:39:32.714Z,64.46
2019-05-02T01:42:04.169Z,64.62
2019-05-02T01:44:36.455Z,64.30
2019-05-02T01:47:01.789Z,64.76
2019-05-02T01:49:30.306Z,64.98
2019-05-02T01:51:58.773Z,64.60
2019-05-02T01:54:27.365Z,65.21
2019-05-02T01:56:56.191Z,65.08
2019-05-02T01:59:29.027Z,65.35
2019-05-02T02:01:57.975Z,65.02
2019-05-02T02:04:25.252Z,65.56
2019-05-02T02:06:53.771Z,66.31
2019-05-02T02:09:22.282Z,67.14
2019-05-02T02:11:50.843Z,66.94
2019-05-02T02:14:19.372Z,66.42
2019-05-02T02:16:48.112Z,65.85
2019-05-02T02:19:24.198Z,64.28
2019-05-02T02:21:57.571Z,64.07
2019-05-02T02:24:28.777Z,64.17
2019-05-02T02:26:57.282Z,64.02
2019-05-02T02:29:25.811Z,64.50
2019-05-02T02:31:54.307Z,65.20
2019-05-02T02:34:29.225Z,65.79
2019-05-02T02:36:53.068Z,66.55
2019-05-02T02:39:21.558Z,66.23
2019-05-02T02:41:52.354Z,66.26
2019-05-02T02:44:22.075Z,66.46
2019-05-02T02:46:52.313Z,65.62
2019-05-02T02:49:24.007Z,65.50
2019-05-02T02:51:51.119Z,65.29
2019-05-02T02:54:19.695Z,64.88
2019-05-02T02:56:48.290Z,63.99
2019-05-02T02:59:19.450Z,63.91
2019-05-02T03:01:47.015Z,64.28
2019-05-02T03:04:15.605Z,63.98
2019-05-02T03:06:46.966Z,63.51
2019-05-02T03:09:20.402Z,63.28
2019-05-02T03:11:49.516Z,63.18
2019-05-02T03:14:22.823Z,63.36
2019-05-02T03:16:51.382Z,63.59
2019-05-02T03:19:21.054Z,64.18
2019-05-02T03:21:54.256Z,64.54
2019-05-02T03:24:24.080Z,64.35
2019-05-02T03:26:55.254Z,63.87
2019-05-02T03:29:23.319Z,63.92
2019-05-02T03:32:12.456Z,64.21
2019-05-02T03:34:23.632Z,64.61
2019-05-02T03:36:52.291Z,65.07
2019-05-02T03:39:21.541Z,65.03
2019-05-02T03:41:55.464Z,65.18
2019-05-02T03:44:26.190Z,65.51
2019-05-02T03:46:54.517Z,65.95
2019-05-02T03:49:21.059Z,65.86
2019-05-02T03:51:55.795Z,66.07
2019-05-02T03:54:20.393Z,66.24
2019-05-02T03:56:51.042Z,66.55
2019-05-02T03:59:19.413Z,66.77
2019-05-02T04:01:48.460Z,67.00
2019-05-02T04:04:20.738Z,67.13
2019-05-02T04:06:47.738Z,67.29
2019-05-02T04:09:39.053Z,67.21
2019-05-02T04:12:05.014Z,67.35
2019-05-02T04:14:37.760Z,66.49
2019-05-02T04:17:04.155Z,66.59
2019-05-02T04:19:35.056Z,67.13
2019-05-02T04:22:08.697Z,67.70
2019-05-02T04:24:34.133Z,67.31
2019-05-02T04:27:02.774Z,67.64
2019-05-02T04:29:33.210Z,67.83
2019-05-02T04:32:04.716Z,67.97
2019-05-02T04:34:32.252Z,68.58
2019-05-02T04:37:03.883Z,66.08
2019-05-02T04:39:31.061Z,65.64
2019-05-02T04:42:05.239Z,65.48
2019-05-02T04:44:40.953Z,65.67
2019-05-02T04:47:10.928Z,64.07
2019-05-02T04:49:35.827Z,64.53
2019-05-02T04:52:07.077Z,62.99
2019-05-02T04:54:32.383Z,60.96
2019-05-02T04:57:02.338Z,61.10
2019-05-02T04:59:33.235Z,61.88
2019-05-02T05:02:01.723Z,62.10
2019-05-02T05:04:33.145Z,62.55
2019-05-02T05:07:01.207Z,63.23
2019-05-02T05:09:29.974Z,62.90
2019-05-02T05:12:02.412Z,62.09
2019-05-02T05:14:31.434Z,62.02
2019-05-02T05:16:59.036Z,62.49
2019-05-02T05:19:33.002Z,62.20
2019-05-02T05:22:05.003Z,61.86
2019-05-02T05:24:50.275Z,62.26
2019-05-02T05:27:22.650Z,62.72
2019-05-02T05:29:53.638Z,62.72
2019-05-02T05:32:19.315Z,63.19
2019-05-02T05:34:48.792Z,64.15
2019-05-02T05:40:28.199Z,64.34
2019-05-02T05:48:44.780Z,64.37
2019-05-02T05:51:17.052Z,60.59
2019-05-02T05:53:43.531Z,60.53
2019-05-02T05:56:13.613Z,61.20
2019-05-02T05:58:48.206Z,61.58
2019-05-02T06:01:12.614Z,61.67
2019-05-02T06:03:44.558Z,62.21
2019-05-02T06:06:14.831Z,62.75
2019-05-02T06:08:49.106Z,63.12
2019-05-02T06:11:19.910Z,62.88
2019-05-02T06:13:48.884Z,63.48
2019-05-02T06:16:16.669Z,63.33
2019-05-02T06:18:45.282Z,63.34
2019-05-02T06:21:16.886Z,63.82
2019-05-02T06:23:44.385Z,63.83
2019-05-02T06:26:13.863Z,64.19
2019-05-02T06:28:43.331Z,63.59
2019-05-02T06:31:11.960Z,64.32
2019-05-02T06:33:40.739Z,64.76
2019-05-02T06:36:09.270Z,65.71
2019-05-02T06:38:37.817Z,65.41
2019-05-02T06:41:06.320Z,65.76
2019-05-02T06:43:34.870Z,65.87
2019-05-02T06:46:15.587Z,66.18
2019-05-02T06:48:33.674Z,66.77
2019-05-02T06:51:11.066Z,66.83
2019-05-02T06:53:41.258Z,66.64
2019-05-02T06:56:07.942Z,66.37
2019-05-02T06:58:41.779Z,66.08
2019-05-02T07:01:07.745Z,65.57
2019-05-02T07:03:36.253Z,65.37
2019-05-02T07:06:07.530Z,65.20
2019-05-02T07:08:35.165Z,65.82
2019-05-02T07:11:03.937Z,66.87
2019-05-02T07:13:36.172Z,67.16
2019-05-02T07:16:04.413Z,67.91
2019-05-02T07:18:52.525Z,68.48
2019-05-02T07:21:23.547Z,68.26
2019-05-02T07:23:53.644Z,68.06
2019-05-02T07:26:23.305Z,68.12
2019-05-02T07:28:51.988Z,67.47
2019-05-02T07:31:20.594Z,63.89
2019-05-02T07:33:49.136Z,60.78
2019-05-02T07:36:17.719Z,56.97
2019-05-02T07:38:46.248Z,57.71
2019-05-02T07:41:15.037Z,59.43
2019-05-02T07:43:43.554Z,58.08
2019-05-02T07:46:16.277Z,58.19
2019-05-02T07:48:43.753Z,56.00
2019-05-02T07:51:12.334Z,55.90
2019-05-02T07:53:44.472Z,52.46
2019-05-02T07:56:12.404Z,51.74
2019-05-02T07:58:47.000Z,50.07
2019-05-02T08:01:13.507Z,46.85
2019-05-02T08:03:41.980Z,44.97
2019-05-02T08:06:10.473Z,46.10
2019-05-02T08:08:38.954Z,45.69
2019-05-02T08:11:07.617Z,45.26
2019-05-02T08:13:36.125Z,45.17
2019-05-02T08:16:04.726Z,42.98
2019-05-02T08:18:33.246Z,38.84
2019-05-02T08:21:01.747Z,37.41
2019-05-02T08:23:30.349Z,37.89
2019-05-02T08:25:58.864Z,38.59
2019-05-02T08:28:31.713Z,38.94
2019-05-02T08:31:00.228Z,36.98
2019-05-02T08:33:29.274Z,36.24
2019-05-02T08:35:58.994Z,34.87
2019-05-02T08:38:27.502Z,35.52
2019-05-02T08:40:56.111Z,36.28
2019-05-02T08:43:26.680Z,37.39
2019-05-02T08:45:55.276Z,37.42
2019-05-02T08:48:23.778Z,37.17
2019-05-02T08:50:52.241Z,37.28
2019-05-02T08:53:25.137Z,36.12
2019-05-02T08:55:53.648Z,32.92
2019-05-02T08:58:22.152Z,33.74
2019-05-02T09:00:50.725Z,35.68
2019-05-02T09:03:19.235Z,35.81
2019-05-02T09:05:47.808Z,35.51
2019-05-02T09:08:16.767Z,36.89
2019-05-02T09:10:46.003Z,37.51
2019-05-02T09:13:15.852Z,39.43
2019-05-02T09:15:49.623Z,40.35
2019-05-02T09:18:15.159Z,39.66
2019-05-02T09:20:46.978Z,39.30
2019-05-02T09:23:14.076Z,39.60
2019-05-02T09:25:43.084Z,38.01
2019-05-02T09:28:12.491Z,37.22
2019-05-02T09:30:41.903Z,36.70
2019-05-02T09:33:15.269Z,36.66
2019-05-02T09:35:43.775Z,36.51
2019-05-02T09:38:14.775Z,37.84
2019-05-02T09:40:47.327Z,36.17
2019-05-02T09:43:14.885Z,37.39
2019-05-02T09:45:44.215Z,38.36
2019-05-02T09:48:17.180Z,37.94
2019-05-02T09:50:49.185Z,36.49
2019-05-02T09:53:20.507Z,37.00
2019-05-02T09:55:50.065Z,35.23
2019-05-02T09:58:21.276Z,34.88
2019-05-02T10:00:52.415Z,32.96
2019-05-02T10:03:22.596Z,33.18
2019-05-02T10:05:52.328Z,32.79
2019-05-02T10:08:22.931Z,32.00
2019-05-02T10:10:52.188Z,31.80
2019-05-02T10:13:22.721Z,32.16
2019-05-02T10:15:52.784Z,32.23
2019-05-02T10:18:25.540Z,31.26
2019-05-02T10:20:52.387Z,31.99
2019-05-02T10:23:23.545Z,32.60
2019-05-02T10:25:52.262Z,34.14
2019-05-02T10:28:22.699Z,33.50
2019-05-02T10:30:52.691Z,34.46
2019-05-02T10:33:22.575Z,34.39
2019-05-02T10:35:52.548Z,35.52
2019-05-02T10:38:22.742Z,34.87
2019-05-02T10:40:54.628Z,34.66
2019-05-02T10:43:22.308Z,35.24
2019-05-02T10:45:58.513Z,34.78
2019-05-02T10:48:28.708Z,35.40
2019-05-02T10:51:15.037Z,36.14
2019-05-02T10:53:47.017Z,35.88
2019-05-02T10:56:13.895Z,34.97
2019-05-02T10:58:42.682Z,35.54
2019-05-02T11:01:12.883Z,36.22
2019-05-02T11:03:47.343Z,36.88
2019-05-02T11:06:13.432Z,37.12
2019-05-02T11:08:45.832Z,37.77
2019-05-02T11:11:12.754Z,38.38
2019-05-02T11:13:53.326Z,38.79
2019-05-02T11:16:36.113Z,38.50
2019-05-02T11:19:06.368Z,37.58
2019-05-02T11:21:34.975Z,37.79
2019-05-02T11:24:03.545Z,37.91
2019-05-02T11:26:32.554Z,37.90
2019-05-02T11:29:03.054Z,36.88
2019-05-02T11:31:32.482Z,36.85
2019-05-02T11:34:01.793Z,37.18
2019-05-02T11:36:32.560Z,36.91
2019-05-02T11:39:11.682Z,36.03
2019-05-02T11:41:31.892Z,37.07
2019-05-02T11:44:00.439Z,36.50
2019-05-02T11:46:29.003Z,35.90
2019-05-02T11:48:58.623Z,35.87
2019-05-02T11:51:27.319Z,35.54
2019-05-02T11:53:59.331Z,35.46
2019-05-02T11:56:26.102Z,34.40
2019-05-02T11:58:54.669Z,35.14
2019-05-02T12:01:35.729Z,35.72
2019-05-02T12:03:53.466Z,36.59
2019-05-02T12:06:22.487Z,36.03
2019-05-02T12:08:52.640Z,35.88
2019-05-02T12:11:22.808Z,37.30
2019-05-02T12:13:55.481Z,36.42
2019-05-02T12:16:23.016Z,36.72
2019-05-02T12:19:14.348Z,35.76
2019-05-02T12:21:41.999Z,36.90
2019-05-02T12:24:12.527Z,35.38
2019-05-02T12:26:41.946Z,36.10
2019-05-02T12:29:12.225Z,35.90
2019-05-02T12:31:42.519Z,35.94
2019-05-02T12:34:12.030Z,36.16
2019-05-02T12:36:42.597Z,35.76
2019-05-02T12:39:12.640Z,34.02
2019-05-02T12:41:42.260Z,34.96
2019-05-02T12:44:11.769Z,35.91
2019-05-02T12:46:42.140Z,35.38
2019-05-02T12:49:23.960Z,36.36
2019-05-02T12:51:42.841Z,35.12
2019-05-02T12:54:12.396Z,34.67
2019-05-02T12:56:41.854Z,35.84
2019-05-02T12:59:11.842Z,34.70
2019-05-02T13:01:42.160Z,34.59
2019-05-02T13:04:12.541Z,35.67
2019-05-02T13:06:42.176Z,37.66
2019-05-02T13:09:13.078Z,37.59
2019-05-02T13:11:59.390Z,38.67
2019-05-02T13:14:31.726Z,40.12
2019-05-02T13:17:02.087Z,40.15
2019-05-02T13:19:38.172Z,41.52
2019-05-02T13:22:05.186Z,42.51
2019-05-02T13:24:39.084Z,43.25
2019-05-02T13:27:09.482Z,43.52
2019-05-02T13:29:38.232Z,43.77
2019-05-02T13:32:13.491Z,43.62
2019-05-02T13:34:43.660Z,43.92
2019-05-02T13:37:12.627Z,44.08
2019-05-02T13:39:42.840Z,43.76
2019-05-02T13:42:12.562Z,42.91
2019-05-02T13:44:48.452Z,41.90
2019-05-02T13:47:18.840Z,42.17
2019-05-02T13:49:53.949Z,42.03
2019-05-02T13:52:19.597Z,41.26
2019-05-02T13:54:49.782Z,41.27
2019-05-02T13:57:18.281Z,41.30
2019-05-02T13:59:46.878Z,41.81
2019-05-02T14:02:35.922Z,40.79
2019-05-02T14:05:07.591Z,41.04
2019-05-02T14:07:36.203Z,41.46
2019-05-02T14:10:07.884Z,41.71
2019-05-02T14:12:44.102Z,42.34
2019-05-02T14:15:13.890Z,43.24
2019-05-02T14:17:42.424Z,43.40
2019-05-02T14:20:13.716Z,43.16
2019-05-02T14:22:42.486Z,43.77
2019-05-02T14:25:12.258Z,43.75
2019-05-02T14:27:42.179Z,43.63
2019-05-02T14:30:12.172Z,44.62
2019-05-02T14:32:42.447Z,45.07
2019-05-02T14:35:18.698Z,45.48
2019-05-02T14:37:47.723Z,45.45
2019-05-02T14:40:18.106Z,45.01
2019-05-02T14:42:46.644Z,45.48
2019-05-02T14:45:27.142Z,45.45
2019-05-02T14:47:49.707Z,45.84
2019-05-02T14:50:24.253Z,45.78
2019-05-02T14:52:46.596Z,45.94
2019-05-02T14:55:17.060Z,45.91
2019-05-02T14:57:45.869Z,46.28
2019-05-02T15:00:16.960Z,47.00
2019-05-02T15:02:49.292Z,46.66
2019-05-02T15:05:19.190Z,47.31
2019-05-02T15:07:46.260Z,47.46
2019-05-02T15:10:14.920Z,47.89
2019-05-02T15:12:43.451Z,48.32
2019-05-02T15:15:12.429Z,48.65
2019-05-02T15:17:42.105Z,49.00
2019-05-02T15:20:12.999Z,50.94
2019-05-02T15:22:42.479Z,50.53
2019-05-02T15:25:13.766Z,51.04
2019-05-02T15:27:44.595Z,51.61
2019-05-02T15:30:13.093Z,51.91
2019-05-02T15:32:46.464Z,53.67
2019-05-02T15:35:25.089Z,53.70
2019-05-02T15:37:51.808Z,57.24
2019-05-02T15:42:52.072Z,60.94
2019-05-02T15:45:23.560Z,61.68
2019-05-02T15:47:52.639Z,64.51
2019-05-02T15:50:25.625Z,65.48
2019-05-02T15:52:57.194Z,66.32
2019-05-02T15:55:33.889Z,68.26
2019-05-02T15:57:58.924Z,69.48
2019-05-02T16:00:29.297Z,70.32
2019-05-02T16:03:01.585Z,70.42
2019-05-02T16:05:28.192Z,70.96
2019-05-02T16:08:05.481Z,70.62
2019-05-02T16:10:33.382Z,71.42
2019-05-02T16:12:59.521Z,71.79
2019-05-02T16:15:27.637Z,71.83
2019-05-02T16:18:03.639Z,74.13
2019-05-02T16:20:35.150Z,74.06
2019-05-02T16:23:06.500Z,75.20
2019-05-02T16:25:35.116Z,76.28
2019-05-02T16:28:06.092Z,76.38
2019-05-02T16:30:36.956Z,75.91
2019-05-02T16:33:18.865Z,76.55
2019-05-02T16:35:41.992Z,76.26
2019-05-02T16:38:12.258Z,77.12
2019-05-02T16:40:41.902Z,76.67
2019-05-02T16:43:12.171Z,77.40
2019-05-02T16:45:41.651Z,78.57
2019-05-02T16:48:12.015Z,78.91
2019-05-02T16:50:42.053Z,79.87
2019-05-02T16:58:37.988Z,80.71
2019-05-02T17:01:06.979Z,79.33
2019-05-02T17:03:35.499Z,79.83
2019-05-02T17:06:04.007Z,79.72
2019-05-02T17:08:34.100Z,80.35
2019-05-02T17:11:04.325Z,81.18
2019-05-02T17:13:35.762Z,81.82
2019-05-02T17:16:06.818Z,80.43
2019-05-02T17:18:33.317Z,80.48
2019-05-02T17:21:01.806Z,80.80
2019-05-02T17:23:30.294Z,80.47
2019-05-02T17:25:58.776Z,80.88
2019-05-02T17:28:27.291Z,81.87
2019-05-02T17:30:55.795Z,83.71
2019-05-02T17:33:24.296Z,83.17
2019-05-02T17:35:54.312Z,84.84
2019-05-02T17:38:27.707Z,84.17
2019-05-02T17:40:54.476Z,84.80
2019-05-02T17:43:23.535Z,85.90
2019-05-02T17:45:52.027Z,85.20
2019-05-02T17:48:20.514Z,84.16
2019-05-02T17:50:56.022Z,82.90
2019-05-02T17:53:22.514Z,82.98
2019-05-02T17:55:52.601Z,83.23
2019-05-02T17:58:21.180Z,83.04
2019-05-02T18:00:55.771Z,82.84
2019-05-02T18:03:24.079Z,83.38
2019-05-02T18:05:52.875Z,83.38
2019-05-02T18:08:21.847Z,83.79
2019-05-02T18:10:55.116Z,83.43
2019-05-02T18:13:22.667Z,84.72
2019-05-02T18:15:53.257Z,84.39
2019-05-02T18:18:22.138Z,83.66
2019-05-02T18:20:52.903Z,83.41
2019-05-02T18:23:25.750Z,82.74
2019-05-02T18:25:52.548Z,82.17
2019-05-02T18:28:25.915Z,81.54
2019-05-02T18:30:52.504Z,81.17
2019-05-02T18:33:22.665Z,82.02
2019-05-02T18:35:52.608Z,82.02
2019-05-02T18:38:22.417Z,81.91
2019-05-02T18:40:52.124Z,81.84
2019-05-02T18:43:22.260Z,82.11
2019-05-02T18:45:51.566Z,82.08
2019-05-02T18:48:21.841Z,82.18
2019-05-02T18:50:52.423Z,82.52
2019-05-02T18:53:24.260Z,83.19
2019-05-02T18:55:51.899Z,83.32
2019-05-02T18:58:22.537Z,82.23
2019-05-02T19:00:51.992Z,82.12
2019-05-02T19:03:20.607Z,82.70
2019-05-02T19:05:51.703Z,83.28
2019-05-02T19:08:30.634Z,83.60
2019-05-02T19:11:04.057Z,83.49
2019-05-02T19:13:21.811Z,84.02
2019-05-02T19:15:50.325Z,83.59
2019-05-02T19:18:19.721Z,83.48
2019-05-02T19:20:57.550Z,83.14
2019-05-02T19:23:24.767Z,83.22
2019-05-02T19:25:53.326Z,83.37
2019-05-02T19:28:34.751Z,83.91
2019-05-02T19:31:02.910Z,82.93
2019-05-02T19:33:31.882Z,82.84
2019-05-02T19:36:02.659Z,83.10
2019-05-02T19:38:32.323Z,83.44
2019-05-02T19:41:05.533Z,83.88
2019-05-02T19:43:32.409Z,83.52
2019-05-02T19:46:02.244Z,83.68
2019-05-02T19:48:32.909Z,83.59
2019-05-02T19:51:02.485Z,84.29
2019-05-02T19:53:32.250Z,85.09
2019-05-02T19:56:02.971Z,85.17
2019-05-02T19:58:36.737Z,85.29
2019-05-02T20:01:02.652Z,85.15
2019-05-02T20:03:32.395Z,84.88
2019-05-02T20:06:02.310Z,84.74
2019-05-02T20:08:32.631Z,84.48
2019-05-02T20:11:02.117Z,84.73
2019-05-02T20:13:32.673Z,85.04
2019-05-02T20:16:05.813Z,85.76
2019-05-02T20:18:36.738Z,86.54
2019-05-02T20:21:21.740Z,86.57
2019-05-02T20:23:43.180Z,86.23
2019-05-02T20:26:15.402Z,85.94
2019-05-02T20:28:42.386Z,85.56
2019-05-02T20:31:12.321Z,84.84
2019-05-02T20:33:42.868Z,84.44
2019-05-02T20:36:12.423Z,84.12
2019-05-02T20:38:41.770Z,84.02
2019-05-02T20:41:12.576Z,83.71
2019-05-02T20:43:42.912Z,83.83
2019-05-02T20:46:12.121Z,85.21
2019-05-02T20:48:41.807Z,85.96
2019-05-02T20:51:12.210Z,86.25
2019-05-02T20:53:42.097Z,85.86
2019-05-02T20:56:12.386Z,86.56
2019-05-02T20:58:41.994Z,86.32
2019-05-02T21:01:12.365Z,85.87
2019-05-02T21:03:42.744Z,85.17
2019-05-02T21:06:18.861Z,85.02
2019-05-02T21:09:02.202Z,85.02
2019-05-02T21:11:32.389Z,85.58
2019-05-02T21:14:01.680Z,86.57
2019-05-02T21:16:32.116Z,86.71
2019-05-02T21:19:02.213Z,86.31
2019-05-02T21:21:32.475Z,86.29
2019-05-02T21:24:02.095Z,86.28
2019-05-02T21:26:32.704Z,85.54
2019-05-02T21:29:00.869Z,85.78
2019-05-02T21:31:29.375Z,85.92
2019-05-02T21:33:59.397Z,86.37
2019-05-02T21:36:27.871Z,86.49
2019-05-02T21:38:56.427Z,86.50
2019-05-02T21:41:24.923Z,86.46
2019-05-02T21:43:53.418Z,87.06
2019-05-02T21:46:22.443Z,87.17
2019-05-02T21:48:52.671Z,86.99
2019-05-02T21:51:34.869Z,86.51
2019-05-02T21:54:22.634Z,86.57
2019-05-02T21:56:58.657Z,86.79
2019-05-02T21:59:27.158Z,86.59
2019-05-02T22:01:57.360Z,86.12
2019-05-02T22:04:25.902Z,86.26
2019-05-02T22:06:54.395Z,86.36
2019-05-02T22:09:23.331Z,86.37
2019-05-02T22:11:52.208Z,85.88
2019-05-02T22:14:22.387Z,85.33
2019-05-02T22:16:52.950Z,84.87
2019-05-02T22:19:21.443Z,84.90
2019-05-02T22:21:49.916Z,85.36
2019-05-02T22:24:18.545Z,85.81
2019-05-02T22:26:47.032Z,85.72
2019-05-02T22:29:15.598Z,86.23
2019-05-02T22:31:44.092Z,86.26
2019-05-02T22:34:13.014Z,86.13
2019-05-02T22:36:41.883Z,85.03
2019-05-02T22:39:15.570Z,86.09
2019-05-02T22:41:44.028Z,86.71
2019-05-02T22:44:12.587Z,87.18
2019-05-02T22:46:43.426Z,87.02
2019-05-02T22:49:14.589Z,87.02
2019-05-02T22:51:43.925Z,87.46
2019-05-02T22:54:24.282Z,87.97
2019-05-02T22:56:42.803Z,88.14
2019-05-02T22:59:11.301Z,88.23
2019-05-02T23:01:41.951Z,87.58
2019-05-02T23:04:12.506Z,88.23
2019-05-02T23:06:43.952Z,88.31
2019-05-02T23:09:12.637Z,88.11
2019-05-02T23:11:42.524Z,88.10
2019-05-02T23:14:11.343Z,87.79
2019-05-02T23:16:42.320Z,87.57
2019-05-02T23:19:12.074Z,86.88
2019-05-02T23:21:42.234Z,86.65
2019-05-02T23:24:14.479Z,86.61
2019-05-02T23:26:58.998Z,87.08
2019-05-02T23:29:27.490Z,87.26
2019-05-02T23:31:56.026Z,87.19
2019-05-02T23:34:24.544Z,87.32
2019-05-02T23:36:53.098Z,87.85
2019-05-02T23:39:21.659Z,88.03
2019-05-02T23:41:50.167Z,88.00
2019-05-02T23:44:18.695Z,86.68
2019-05-02T23:46:47.169Z,86.66
2019-05-02T23:49:15.820Z,87.11
2019-05-02T23:51:44.289Z,87.49
2019-05-02T23:54:13.172Z,87.60
2019-05-02T23:56:43.062Z,87.66
2019-05-02T23:59:12.096Z,87.46
